createdAt,value
2019-02-23T00:02:07.085Z,5.40
2019-02-23T00:04:35.308Z,4.87
2019-02-23T00:07:03.649Z,4.78
2019-02-23T00:09:31.904Z,4.97
2019-02-23T00:12:00.165Z,4.87
2019-02-23T00:14:28.418Z,4.83
2019-02-23T00:16:56.730Z,5.08
2019-02-23T00:19:25.330Z,4.78
2019-02-23T00:21:53.686Z,4.62
2019-02-23T00:24:21.929Z,4.90
2019-02-23T00:26:50.163Z,5.35
2019-02-23T00:29:18.406Z,5.03
2019-02-23T00:31:46.657Z,5.00
2019-02-23T00:34:14.914Z,4.55
2019-02-23T00:36:43.161Z,4.85
2019-02-23T00:39:11.398Z,5.10
2019-02-23T00:41:39.657Z,4.72
2019-02-23T00:44:07.893Z,4.83
2019-02-23T00:46:36.129Z,4.92
2019-02-23T00:49:04.396Z,5.03
2019-02-23T00:51:32.648Z,4.85
2019-02-23T00:54:00.897Z,4.90
2019-02-23T00:56:29.165Z,5.30
2019-02-23T00:58:57.410Z,4.70
2019-02-23T01:01:25.709Z,4.97
2019-02-23T01:03:54.417Z,4.83
2019-02-23T01:06:23.280Z,4.67
2019-02-23T01:08:51.511Z,4.50
2019-02-23T01:11:19.769Z,4.92
2019-02-23T01:13:48.052Z,4.50
2019-02-23T01:16:16.277Z,4.58
2019-02-23T01:18:44.539Z,4.83
2019-02-23T01:21:12.770Z,4.60
2019-02-23T01:23:41.020Z,4.75
2019-02-23T01:26:09.281Z,4.53
2019-02-23T01:28:37.540Z,4.78
2019-02-23T01:31:05.776Z,4.60
2019-02-23T01:33:34.005Z,5.03
2019-02-23T01:36:02.249Z,4.83
2019-02-23T01:38:30.482Z,5.12
2019-02-23T01:40:58.714Z,5.05
2019-02-23T01:43:26.977Z,5.72
2019-02-23T01:45:55.202Z,5.08
2019-02-23T01:48:23.453Z,5.03
2019-02-23T01:50:51.689Z,5.58
2019-02-23T01:53:19.920Z,5.15
2019-02-23T01:55:48.185Z,4.80
2019-02-23T01:58:16.444Z,4.85
2019-02-23T02:00:44.675Z,5.10
2019-02-23T02:03:12.924Z,5.10
2019-02-23T02:05:41.167Z,5.60
2019-02-23T02:08:09.406Z,5.03
2019-02-23T02:10:37.646Z,4.83
2019-02-23T02:13:05.887Z,5.10
2019-02-23T02:15:34.134Z,5.03
2019-02-23T02:18:02.399Z,4.50
2019-02-23T02:20:30.637Z,5.33
2019-02-23T02:22:58.874Z,5.28
2019-02-23T02:25:27.128Z,4.97
2019-02-23T02:27:55.361Z,5.53
2019-02-23T02:30:23.590Z,4.92
2019-02-23T02:32:51.843Z,4.90
2019-02-23T02:35:20.085Z,5.03
2019-02-23T02:37:48.318Z,5.05
2019-02-23T02:40:16.587Z,5.28
2019-02-23T02:42:44.806Z,5.12
2019-02-23T02:45:13.064Z,5.20
2019-02-23T02:47:41.318Z,5.12
2019-02-23T02:50:23.120Z,5.28
2019-02-23T02:52:40.172Z,5.50
2019-02-23T02:55:09.141Z,5.42
2019-02-23T02:57:37.418Z,5.60
2019-02-23T03:00:08.766Z,5.87
2019-02-23T03:02:37.058Z,5.37
2019-02-23T03:05:06.366Z,5.90
2019-02-23T03:07:34.598Z,5.90
2019-02-23T03:10:02.858Z,6.00
2019-02-23T03:12:31.105Z,6.00
2019-02-23T03:14:59.346Z,5.92
2019-02-23T03:17:27.591Z,5.83
2019-02-23T03:19:55.858Z,6.45
2019-02-23T03:22:24.114Z,5.90
2019-02-23T03:24:52.361Z,5.78
2019-02-23T03:27:20.626Z,6.22
2019-02-23T03:29:48.881Z,6.42
2019-02-23T03:32:17.129Z,6.10
2019-02-23T03:34:45.642Z,6.03
2019-02-23T03:37:13.888Z,5.60
2019-02-23T03:39:42.178Z,6.05
2019-02-23T03:42:10.479Z,6.05
2019-02-23T03:44:38.811Z,5.83
2019-02-23T03:47:07.040Z,5.65
2019-02-23T03:49:35.272Z,5.60
2019-02-23T03:52:03.529Z,5.83
2019-02-23T03:54:31.758Z,6.12
2019-02-23T03:57:00.021Z,6.00
2019-02-23T03:59:28.277Z,6.25
2019-02-23T04:01:56.594Z,6.12
2019-02-23T04:04:24.852Z,5.80
2019-02-23T04:06:53.092Z,6.28
2019-02-23T04:09:21.335Z,5.90
2019-02-23T04:11:49.591Z,6.15
2019-02-23T04:14:17.845Z,6.00
2019-02-23T04:16:46.074Z,6.12
2019-02-23T04:19:14.313Z,5.60
2019-02-23T04:21:42.550Z,5.50
2019-02-23T04:24:10.796Z,5.90
2019-02-23T04:26:39.057Z,6.03
2019-02-23T04:29:07.289Z,5.78
2019-02-23T04:31:35.548Z,5.80
2019-02-23T04:34:03.804Z,6.05
2019-02-23T04:36:32.057Z,6.20
2019-02-23T04:39:00.301Z,6.00
2019-02-23T04:41:28.554Z,5.67
2019-02-23T04:43:56.781Z,6.10
2019-02-23T04:46:25.022Z,5.45
2019-02-23T04:48:53.258Z,5.90
2019-02-23T04:51:21.505Z,5.55
2019-02-23T04:53:49.752Z,5.58
2019-02-23T04:56:18.006Z,5.60
2019-02-23T04:58:46.255Z,5.42
2019-02-23T05:01:14.503Z,5.70
2019-02-23T05:03:42.734Z,5.42
2019-02-23T05:06:10.958Z,5.78
2019-02-23T05:08:39.206Z,5.35
2019-02-23T05:11:07.437Z,5.87
2019-02-23T05:13:35.715Z,6.03
2019-02-23T05:16:04.042Z,5.60
2019-02-23T05:18:32.299Z,5.62
2019-02-23T05:21:00.534Z,5.83
2019-02-23T05:23:28.783Z,5.55
2019-02-23T05:25:57.036Z,6.20
2019-02-23T05:28:25.269Z,5.37
2019-02-23T05:30:53.533Z,5.50
2019-02-23T05:33:21.762Z,5.05
2019-02-23T05:35:50.011Z,5.53
2019-02-23T05:38:18.246Z,6.03
2019-02-23T05:40:46.490Z,5.20
2019-02-23T05:43:14.761Z,5.67
2019-02-23T05:45:43.025Z,5.20
2019-02-23T05:48:11.281Z,5.00
2019-02-23T05:50:39.537Z,5.15
2019-02-23T05:53:07.774Z,5.45
2019-02-23T05:55:36.038Z,5.47
2019-02-23T05:58:04.261Z,5.83
2019-02-23T06:00:32.505Z,5.70
2019-02-23T06:03:00.750Z,5.47
2019-02-23T06:05:28.997Z,5.75
2019-02-23T06:07:57.248Z,6.12
2019-02-23T06:10:25.485Z,5.17
2019-02-23T06:12:53.737Z,5.62
2019-02-23T06:15:22.008Z,5.28
2019-02-23T06:17:50.266Z,5.53
2019-02-23T06:20:18.586Z,5.97
2019-02-23T06:22:47.067Z,5.62
2019-02-23T06:25:15.457Z,5.17
2019-02-23T06:27:43.711Z,5.65
2019-02-23T06:30:12.878Z,6.22
2019-02-23T06:32:41.154Z,5.12
2019-02-23T06:35:10.149Z,5.87
2019-02-23T06:37:38.381Z,5.67
2019-02-23T06:40:08.866Z,5.87
2019-02-23T06:42:37.098Z,5.53
2019-02-23T06:45:10.714Z,5.80
2019-02-23T06:47:38.947Z,6.22
2019-02-23T06:50:07.623Z,6.47
2019-02-23T06:52:36.013Z,5.90
2019-02-23T06:55:04.619Z,6.45
2019-02-23T06:57:32.857Z,6.08
2019-02-23T07:00:01.147Z,6.40
2019-02-23T07:02:29.401Z,6.65
2019-02-23T07:04:57.664Z,6.45
2019-02-23T07:07:25.921Z,6.53
2019-02-23T07:09:54.142Z,6.95
2019-02-23T07:12:22.411Z,7.20
2019-02-23T07:14:50.657Z,6.45
2019-02-23T07:17:18.906Z,7.15
2019-02-23T07:19:47.164Z,7.67
2019-02-23T07:22:16.040Z,8.10
2019-02-23T07:24:44.347Z,7.72
2019-02-23T07:27:12.586Z,7.60
2019-02-23T07:29:40.838Z,7.25
2019-02-23T07:32:09.069Z,8.13
2019-02-23T07:34:37.308Z,8.43
2019-02-23T07:37:05.568Z,7.95
2019-02-23T07:39:33.828Z,9.70
2019-02-23T07:42:02.077Z,9.35
2019-02-23T07:44:30.329Z,8.98
2019-02-23T07:46:58.567Z,9.88
2019-02-23T07:49:26.825Z,9.25
2019-02-23T07:51:55.074Z,9.15
2019-02-23T07:54:23.410Z,10.60
2019-02-23T07:56:51.680Z,12.00
2019-02-23T07:59:19.926Z,11.95
2019-02-23T08:01:48.180Z,11.80
2019-02-23T08:04:16.443Z,12.23
2019-02-23T08:06:44.700Z,10.95
2019-02-23T08:09:12.966Z,11.97
2019-02-23T08:11:41.194Z,12.18
2019-02-23T08:14:09.461Z,12.93
2019-02-23T08:16:37.715Z,12.47
2019-02-23T08:19:05.963Z,11.93
2019-02-23T08:21:34.241Z,10.93
2019-02-23T08:24:02.524Z,11.60
2019-02-23T08:26:30.774Z,11.20
2019-02-23T08:28:59.038Z,11.22
2019-02-23T08:31:27.270Z,10.13
2019-02-23T08:33:55.530Z,11.28
2019-02-23T08:36:23.852Z,11.45
2019-02-23T08:38:52.087Z,10.58
2019-02-23T08:41:20.368Z,10.28
2019-02-23T08:43:48.616Z,10.75
2019-02-23T08:46:16.880Z,10.35
2019-02-23T08:48:45.133Z,9.58
2019-02-23T08:51:13.404Z,10.50
2019-02-23T08:53:41.656Z,10.82
2019-02-23T08:56:09.932Z,9.95
2019-02-23T08:58:38.154Z,9.68
2019-02-23T09:01:06.395Z,9.75
2019-02-23T09:03:34.806Z,10.20
2019-02-23T09:06:03.043Z,9.60
2019-02-23T09:08:31.328Z,9.75
2019-02-23T09:10:59.577Z,9.33
2019-02-23T09:13:27.825Z,8.73
2019-02-23T09:15:56.080Z,9.33
2019-02-23T09:18:24.328Z,8.88
2019-02-23T09:20:52.593Z,7.87
2019-02-23T09:23:20.852Z,9.60
2019-02-23T09:25:49.086Z,8.68
2019-02-23T09:28:17.340Z,7.55
2019-02-23T09:30:45.578Z,7.25
2019-02-23T09:33:15.117Z,7.70
2019-02-23T09:35:43.381Z,7.40
2019-02-23T09:38:11.620Z,7.10
2019-02-23T09:40:39.876Z,7.37
2019-02-23T09:43:08.109Z,7.08
2019-02-23T09:45:36.358Z,6.47
2019-02-23T09:48:04.720Z,6.92
2019-02-23T09:50:33.000Z,6.53
2019-02-23T09:53:10.731Z,6.90
2019-02-23T09:55:31.237Z,7.90
2019-02-23T09:57:59.538Z,7.05
2019-02-23T10:00:27.812Z,6.70
2019-02-23T10:02:56.046Z,7.08
2019-02-23T10:05:24.295Z,6.60
2019-02-23T10:07:52.530Z,6.58
2019-02-23T10:10:20.778Z,6.65
2019-02-23T10:12:49.038Z,6.75
2019-02-23T10:15:17.695Z,6.60
2019-02-23T10:17:46.280Z,7.05
2019-02-23T10:20:15.181Z,7.30
2019-02-23T10:22:43.410Z,7.12
2019-02-23T10:25:11.671Z,7.20
2019-02-23T10:27:39.924Z,7.17
2019-02-23T10:30:12.922Z,7.42
2019-02-23T10:32:41.203Z,7.17
2019-02-23T10:35:11.210Z,7.80
2019-02-23T10:37:39.471Z,7.97
2019-02-23T10:40:10.047Z,6.75
2019-02-23T10:42:38.300Z,7.10
2019-02-23T10:45:09.677Z,7.30
2019-02-23T10:47:37.933Z,7.90
2019-02-23T10:50:08.841Z,8.08
2019-02-23T10:52:37.078Z,7.90
2019-02-23T10:55:08.844Z,7.33
2019-02-23T10:57:37.100Z,8.35
2019-02-23T11:00:15.966Z,8.33
2019-02-23T11:02:44.259Z,9.38
2019-02-23T11:05:12.640Z,8.93
2019-02-23T11:07:40.915Z,8.53
2019-02-23T11:10:09.566Z,8.53
2019-02-23T11:12:37.864Z,9.20
2019-02-23T11:15:09.143Z,8.30
2019-02-23T11:17:37.379Z,8.08
2019-02-23T11:20:07.206Z,8.05
2019-02-23T11:22:35.465Z,8.00
2019-02-23T11:25:05.058Z,7.58
2019-02-23T11:27:33.321Z,7.55
2019-02-23T11:30:01.611Z,7.55
2019-02-23T11:32:29.921Z,7.83
2019-02-23T11:34:58.170Z,7.20
2019-02-23T11:37:26.424Z,7.78
2019-02-23T11:39:54.737Z,7.30
2019-02-23T11:42:23.055Z,7.37
2019-02-23T11:44:51.356Z,6.85
2019-02-23T11:47:19.670Z,6.87
2019-02-23T11:49:47.931Z,7.20
2019-02-23T11:52:16.182Z,7.00
2019-02-23T11:54:44.437Z,7.35
2019-02-23T11:57:12.719Z,6.55
2019-02-23T11:59:40.992Z,6.72
2019-02-23T12:02:09.221Z,7.28
2019-02-23T12:04:37.465Z,6.50
2019-02-23T12:07:05.712Z,7.00
2019-02-23T12:09:33.942Z,6.78
2019-02-23T12:12:02.181Z,7.33
2019-02-23T12:14:30.437Z,6.85
2019-02-23T12:16:58.690Z,7.15
2019-02-23T12:19:26.930Z,6.55
2019-02-23T12:21:55.188Z,6.95
2019-02-23T12:24:23.445Z,6.58
2019-02-23T12:26:51.673Z,7.35
2019-02-23T12:29:19.913Z,7.33
2019-02-23T12:31:48.164Z,7.55
2019-02-23T12:34:16.395Z,7.33
2019-02-23T12:36:44.646Z,6.47
2019-02-23T12:39:12.913Z,7.55
2019-02-23T12:41:41.165Z,6.80
2019-02-23T12:44:09.425Z,7.25
2019-02-23T12:46:37.661Z,6.62
2019-02-23T12:49:05.922Z,7.83
2019-02-23T12:51:34.242Z,8.08
2019-02-23T12:54:02.498Z,7.75
2019-02-23T12:56:30.760Z,7.53
2019-02-23T12:58:58.990Z,7.35
2019-02-23T13:01:27.241Z,7.03
2019-02-23T13:03:55.478Z,7.28
2019-02-23T13:06:23.736Z,7.58
2019-02-23T13:09:16.257Z,7.67
2019-02-23T13:11:50.666Z,7.37
2019-02-23T13:15:04.282Z,7.58
2019-02-23T13:18:01.716Z,8.08
2019-02-23T13:20:41.938Z,7.78
2019-02-23T13:23:36.045Z,7.75
2019-02-23T13:26:33.221Z,7.22
2019-02-23T13:29:40.655Z,7.55
2019-02-23T13:32:29.764Z,7.55
2019-02-23T13:35:29.907Z,7.10
2019-02-23T13:38:25.103Z,7.83
2019-02-23T13:41:17.530Z,7.47
2019-02-23T13:43:51.733Z,7.92
2019-02-23T13:46:44.585Z,9.03
2019-02-23T13:49:51.969Z,7.70
2019-02-23T13:52:29.383Z,7.60
2019-02-23T13:55:20.305Z,7.33
2019-02-23T13:57:57.826Z,7.30
2019-02-23T14:00:37.958Z,7.58
2019-02-23T14:03:21.400Z,7.70
2019-02-23T14:06:11.000Z,7.30
2019-02-23T14:09:02.266Z,8.40
2019-02-23T14:11:46.615Z,7.25
2019-02-23T14:14:23.895Z,7.55
2019-02-23T14:17:07.413Z,8.35
2019-02-23T14:20:12.493Z,8.48
2019-02-23T14:23:00.464Z,8.53
2019-02-23T14:25:37.919Z,8.78
2019-02-23T14:28:24.252Z,8.80
2019-02-23T14:30:58.258Z,8.15
2019-02-23T14:33:44.933Z,8.00
2019-02-23T14:36:31.736Z,7.95
2019-02-23T14:39:05.786Z,8.78
2019-02-23T14:42:04.190Z,7.92
2019-02-23T14:44:50.535Z,8.43
2019-02-23T14:47:22.080Z,8.23
2019-02-23T14:50:38.454Z,7.70
2019-02-23T14:53:09.978Z,8.68
2019-02-23T14:55:47.258Z,9.80
2019-02-23T14:58:35.021Z,12.20
2019-02-23T15:01:36.633Z,12.03
2019-02-23T15:04:27.662Z,9.75
2019-02-23T15:06:59.178Z,9.10
2019-02-23T15:09:33.433Z,9.45
2019-02-23T17:47:32.270Z,9.68
2019-02-23T17:50:00.549Z,10.05
2019-02-23T17:52:28.810Z,9.68
2019-02-23T17:54:57.095Z,9.73
2019-02-23T17:57:25.386Z,10.35
2019-02-23T17:59:53.648Z,9.98
2019-02-23T18:02:21.907Z,9.88
2019-02-23T18:04:50.272Z,15.25
2019-02-23T18:07:18.602Z,17.75
2019-02-23T18:09:46.855Z,10.05
2019-02-23T18:12:15.115Z,9.48
2019-02-23T18:14:43.425Z,9.73
2019-02-23T18:17:11.710Z,10.00
2019-02-23T18:19:39.942Z,9.23
2019-02-23T18:22:11.019Z,8.98
2019-02-23T18:24:39.810Z,9.28
2019-02-23T18:27:08.593Z,10.25
2019-02-23T18:29:36.858Z,10.30
2019-02-23T18:32:05.250Z,10.32
2019-02-23T18:34:33.546Z,10.18
2019-02-23T18:37:01.855Z,10.13
2019-02-23T18:39:30.501Z,10.60
2019-02-23T18:41:58.760Z,9.75
2019-02-23T18:44:27.190Z,9.50
2019-02-23T18:46:55.468Z,11.03
2019-02-23T18:49:23.710Z,10.98
2019-02-23T18:51:51.946Z,10.20
2019-02-23T18:54:20.216Z,10.05
2019-02-23T18:56:48.473Z,11.10
2019-02-23T19:13:13.414Z,11.20
2019-02-23T19:15:43.859Z,10.63
2019-02-23T19:18:13.646Z,10.90
2019-02-23T19:20:45.845Z,11.60
2019-02-23T19:23:15.819Z,11.08
2019-02-23T19:25:45.798Z,10.88
2019-02-23T19:28:15.669Z,10.80
2019-02-23T19:30:45.654Z,10.23
2019-02-23T19:33:16.243Z,10.85
2019-02-23T19:35:50.652Z,11.15
2019-02-23T19:38:22.237Z,10.28
2019-02-23T19:40:52.659Z,9.88
2019-02-23T19:43:24.233Z,10.28
2019-02-23T19:45:55.015Z,9.95
2019-02-23T19:48:25.169Z,9.68
2019-02-23T19:50:58.582Z,9.80
2019-02-23T19:53:28.868Z,9.55
2019-02-23T19:55:59.229Z,9.53
2019-02-23T19:58:29.352Z,10.25
2019-02-23T20:00:59.133Z,10.35
2019-02-23T20:03:28.546Z,10.18
2019-02-23T20:05:58.409Z,9.28
2019-02-23T20:08:31.416Z,9.55
2019-02-23T20:11:01.696Z,9.45
2019-02-23T20:13:31.429Z,9.33
2019-02-23T20:16:01.617Z,9.43
2019-02-23T20:18:31.872Z,9.05
2019-02-23T20:21:01.570Z,8.78
2019-02-23T20:23:32.130Z,9.15
2019-02-23T20:26:02.603Z,9.35
2019-02-23T20:28:32.366Z,9.35
2019-02-23T20:31:02.273Z,9.13
2019-02-23T20:33:32.319Z,9.30
2019-02-23T20:36:03.481Z,8.40
2019-02-23T20:38:33.215Z,8.90
2019-02-23T20:41:03.048Z,8.90
2019-02-23T20:43:33.752Z,9.00
2019-02-23T20:46:04.153Z,9.20
2019-02-23T20:48:34.263Z,9.38
2019-02-23T20:51:02.634Z,9.15
2019-02-23T20:53:30.892Z,9.38
2019-02-23T20:55:59.117Z,10.63
2019-02-23T20:58:27.517Z,10.40
2019-02-23T21:00:55.824Z,10.38
2019-02-23T21:03:24.084Z,9.38
2019-02-23T21:05:52.352Z,10.13
2019-02-23T21:08:20.654Z,9.63
2019-02-23T21:10:48.987Z,9.43
2019-02-23T21:13:17.214Z,10.10
2019-02-23T21:15:45.484Z,9.35
2019-02-23T21:18:15.745Z,10.13
2019-02-23T21:20:46.691Z,9.90
2019-02-23T21:23:16.383Z,10.05
2019-02-23T21:25:46.183Z,10.60
2019-02-23T21:28:16.140Z,15.05
2019-02-23T21:30:46.919Z,14.33
2019-02-23T21:33:18.416Z,19.07
2019-02-23T21:35:48.361Z,13.70
2019-02-23T21:38:19.427Z,10.98
2019-02-23T21:40:49.714Z,10.65
2019-02-23T21:43:20.211Z,10.82
2019-02-23T21:45:50.261Z,10.93
2019-02-23T21:48:20.056Z,10.28
2019-02-23T21:50:51.034Z,10.65
2019-02-23T21:53:21.001Z,10.15
2019-02-23T21:55:53.183Z,11.20
2019-02-23T21:58:21.612Z,10.15
2019-02-23T22:00:49.950Z,9.70
2019-02-23T22:03:18.337Z,10.80
2019-02-23T22:05:46.650Z,11.08
2019-02-23T22:08:16.089Z,11.12
2019-02-23T22:10:47.881Z,11.30
2019-02-23T22:13:17.536Z,11.10
2019-02-23T22:15:47.807Z,11.63
2019-02-23T22:18:18.446Z,11.97
2019-02-23T22:20:48.876Z,11.12
2019-02-23T22:23:19.056Z,11.55
2019-02-23T22:25:48.809Z,11.43
2019-02-23T22:28:18.336Z,10.75
2019-02-23T22:30:49.666Z,10.32
2019-02-23T22:33:19.281Z,11.15
2019-02-23T22:35:49.402Z,11.38
2019-02-23T22:38:19.329Z,11.10
2019-02-23T22:40:49.673Z,10.98
2019-02-23T22:43:20.719Z,11.03
2019-02-23T22:45:50.487Z,11.65
2019-02-23T22:48:20.477Z,11.00
2019-02-23T22:50:52.026Z,10.45
2019-02-23T22:53:23.576Z,10.88
2019-02-23T22:55:51.929Z,11.95
2019-02-23T22:58:20.166Z,11.38
2019-02-23T23:00:53.054Z,10.50
2019-02-23T23:03:21.633Z,11.75
2019-02-23T23:05:49.913Z,11.22
2019-02-23T23:08:18.203Z,10.68
2019-02-23T23:10:46.443Z,11.50
2019-02-23T23:13:14.690Z,12.37
2019-02-23T23:15:42.934Z,11.53
2019-02-23T23:18:11.181Z,11.35
2019-02-23T23:20:39.417Z,13.10
2019-02-23T23:23:07.666Z,11.78
2019-02-23T23:25:35.906Z,11.38
2019-02-23T23:28:04.150Z,12.28
2019-02-23T23:30:32.413Z,12.05
2019-02-23T23:33:00.658Z,12.45
2019-02-23T23:35:28.901Z,11.97
2019-02-23T23:37:57.150Z,11.88
2019-02-23T23:40:25.398Z,13.00
2019-02-23T23:42:58.124Z,13.13
2019-02-23T23:45:23.610Z,13.03
2019-02-23T23:47:51.858Z,12.75
2019-02-23T23:50:20.098Z,13.30
2019-02-23T23:52:48.337Z,14.38
2019-02-23T23:55:16.594Z,14.85
2019-02-23T23:57:44.849Z,12.75
